sensor_id;sensor_type;location;lat;lon;timestamp;P1;durP1;ratioP1;P2;durP2;ratioP2
7166;SDS011;3625;51.762;14.320;2023-11-21T00:01:32;8.03;;;5.13;;
7166;SDS011;3625;51.762;14.320;2023-11-21T00:04:01;8.37;;;4.47;;
7166;SDS011;3625;51.762;14.320;2023-11-21T00:06:30;11.03;;;5.30;;
7166;SDS011;3625;51.762;14.320;2023-11-21T00:09:00;7.13;;;4.73;;
7166;SDS011;3625;51.762;14.320;2023-11-21T00:11:29;10.17;;;4.53;;
7166;SDS011;3625;51.762;14.320;2023-11-21T00:13:58;4.80;;;4.30;;
7166;SDS011;3625;51.762;14.320;2023-11-21T00:16:27;8.20;;;4.60;;
7166;SDS011;3625;51.762;14.320;2023-11-21T00:18:56;7.67;;;4.83;;
7166;SDS011;3625;51.762;14.320;2023-11-21T00:21:25;5.73;;;4.17;;
7166;SDS011;3625;51.762;14.320;2023-11-21T00:23:54;10.87;;;5.13;;
7166;SDS011;3625;51.762;14.320;2023-11-21T00:26:24;11.47;;;5.27;;
7166;SDS011;3625;51.762;14.320;2023-11-21T00:29:00;7.30;;;4.73;;
7166;SDS011;3625;51.762;14.320;2023-11-21T00:31:29;7.67;;;5.30;;
7166;SDS011;3625;51.762;14.320;2023-11-21T00:33:58;10.13;;;5.27;;
7166;SDS011;3625;51.762;14.320;2023-11-21T00:36:27;9.37;;;5.70;;
7166;SDS011;3625;51.762;14.320;2023-11-21T00:38:55;6.57;;;5.43;;
7166;SDS011;3625;51.762;14.320;2023-11-21T00:41:26;7.83;;;4.73;;
7166;SDS011;3625;51.762;14.320;2023-11-21T00:43:56;12.17;;;5.90;;
7166;SDS011;3625;51.762;14.320;2023-11-21T00:46:27;8.97;;;5.20;;
7166;SDS011;3625;51.762;14.320;2023-11-21T00:48:56;11.73;;;5.40;;
7166;SDS011;3625;51.762;14.320;2023-11-21T00:51:25;8.87;;;5.30;;
7166;SDS011;3625;51.762;14.320;2023-11-21T00:53:54;6.03;;;5.10;;
7166;SDS011;3625;51.762;14.320;2023-11-21T00:56:22;11.27;;;4.93;;
7166;SDS011;3625;51.762;14.320;2023-11-21T00:58:53;10.70;;;5.33;;
7166;SDS011;3625;51.762;14.320;2023-11-21T01:01:22;8.13;;;5.60;;
7166;SDS011;3625;51.762;14.320;2023-11-21T01:03:51;9.10;;;5.40;;
7166;SDS011;3625;51.762;14.320;2023-11-21T01:06:20;12.87;;;5.47;;
7166;SDS011;3625;51.762;14.320;2023-11-21T01:08:49;11.47;;;6.40;;
7166;SDS011;3625;51.762;14.320;2023-11-21T01:11:18;8.30;;;5.60;;
7166;SDS011;3625;51.762;14.320;2023-11-21T01:13:47;9.13;;;5.27;;
7166;SDS011;3625;51.762;14.320;2023-11-21T01:16:17;10.03;;;5.93;;
7166;SDS011;3625;51.762;14.320;2023-11-21T01:18:46;9.83;;;5.63;;
7166;SDS011;3625;51.762;14.320;2023-11-21T01:21:15;14.73;;;6.30;;
7166;SDS011;3625;51.762;14.320;2023-11-21T01:23:44;10.23;;;5.90;;
7166;SDS011;3625;51.762;14.320;2023-11-21T01:26:15;10.17;;;5.50;;
7166;SDS011;3625;51.762;14.320;2023-11-21T01:28:44;10.27;;;5.47;;
7166;SDS011;3625;51.762;14.320;2023-11-21T01:31:15;9.03;;;5.17;;
7166;SDS011;3625;51.762;14.320;2023-11-21T01:33:47;9.73;;;5.80;;
7166;SDS011;3625;51.762;14.320;2023-11-21T01:36:16;8.37;;;5.40;;
7166;SDS011;3625;51.762;14.320;2023-11-21T01:38:44;9.47;;;5.17;;
7166;SDS011;3625;51.762;14.320;2023-11-21T01:44:15;12.20;;;6.43;;
7166;SDS011;3625;51.762;14.320;2023-11-21T01:46:47;8.70;;;5.57;;
7166;SDS011;3625;51.762;14.320;2023-11-21T01:49:16;10.87;;;6.20;;
7166;SDS011;3625;51.762;14.320;2023-11-21T01:51:47;10.13;;;6.07;;
7166;SDS011;3625;51.762;14.320;2023-11-21T01:54:17;11.13;;;6.60;;
7166;SDS011;3625;51.762;14.320;2023-11-21T01:56:46;9.83;;;7.10;;
7166;SDS011;3625;51.762;14.320;2023-11-21T01:59:18;10.10;;;6.30;;
7166;SDS011;3625;51.762;14.320;2023-11-21T02:01:50;11.67;;;6.47;;
7166;SDS011;3625;51.762;14.320;2023-11-21T02:04:20;14.00;;;7.43;;
7166;SDS011;3625;51.762;14.320;2023-11-21T02:06:49;12.40;;;7.03;;
7166;SDS011;3625;51.762;14.320;2023-11-21T02:09:23;15.17;;;6.63;;
7166;SDS011;3625;51.762;14.320;2023-11-21T02:11:53;11.07;;;6.33;;
7166;SDS011;3625;51.762;14.320;2023-11-21T02:14:24;15.57;;;5.83;;
7166;SDS011;3625;51.762;14.320;2023-11-21T02:16:55;11.37;;;6.40;;
7166;SDS011;3625;51.762;14.320;2023-11-21T02:19:24;14.33;;;7.13;;
7166;SDS011;3625;51.762;14.320;2023-11-21T02:21:57;9.97;;;6.47;;
7166;SDS011;3625;51.762;14.320;2023-11-21T02:24:32;10.43;;;6.53;;
7166;SDS011;3625;51.762;14.320;2023-11-21T02:27:02;13.27;;;6.90;;
7166;SDS011;3625;51.762;14.320;2023-11-21T02:29:33;11.27;;;6.90;;
7166;SDS011;3625;51.762;14.320;2023-11-21T02:32:01;9.67;;;5.53;;
7166;SDS011;3625;51.762;14.320;2023-11-21T02:34:31;8.17;;;5.47;;
7166;SDS011;3625;51.762;14.320;2023-11-21T02:36:59;12.63;;;7.07;;
7166;SDS011;3625;51.762;14.320;2023-11-21T02:39:28;9.23;;;6.10;;
7166;SDS011;3625;51.762;14.320;2023-11-21T02:41:59;12.43;;;6.80;;
7166;SDS011;3625;51.762;14.320;2023-11-21T02:44:28;7.57;;;5.73;;
7166;SDS011;3625;51.762;14.320;2023-11-21T02:46:59;11.53;;;6.53;;
7166;SDS011;3625;51.762;14.320;2023-11-21T02:49:28;7.40;;;5.80;;
7166;SDS011;3625;51.762;14.320;2023-11-21T02:51:57;11.43;;;5.77;;
7166;SDS011;3625;51.762;14.320;2023-11-21T02:54:27;10.73;;;6.30;;
7166;SDS011;3625;51.762;14.320;2023-11-21T02:56:57;12.47;;;6.67;;
7166;SDS011;3625;51.762;14.320;2023-11-21T02:59:27;8.07;;;6.33;;
7166;SDS011;3625;51.762;14.320;2023-11-21T03:01:56;10.50;;;5.93;;
7166;SDS011;3625;51.762;14.320;2023-11-21T03:04:25;15.10;;;6.40;;
7166;SDS011;3625;51.762;14.320;2023-11-21T03:06:54;8.77;;;6.57;;
7166;SDS011;3625;51.762;14.320;2023-11-21T03:09:22;12.23;;;6.17;;
7166;SDS011;3625;51.762;14.320;2023-11-21T03:11:53;12.33;;;5.87;;
7166;SDS011;3625;51.762;14.320;2023-11-21T03:14:22;10.33;;;6.43;;
7166;SDS011;3625;51.762;14.320;2023-11-21T03:16:52;13.17;;;6.63;;
7166;SDS011;3625;51.762;14.320;2023-11-21T03:19:21;11.27;;;6.33;;
7166;SDS011;3625;51.762;14.320;2023-11-21T03:21:50;9.53;;;5.73;;
7166;SDS011;3625;51.762;14.320;2023-11-21T03:24:20;13.00;;;6.00;;
7166;SDS011;3625;51.762;14.320;2023-11-21T03:26:49;12.43;;;6.40;;
7166;SDS011;3625;51.762;14.320;2023-11-21T03:29:17;13.87;;;6.63;;
7166;SDS011;3625;51.762;14.320;2023-11-21T03:31:47;14.20;;;6.77;;
7166;SDS011;3625;51.762;14.320;2023-11-21T03:34:19;11.33;;;7.07;;
7166;SDS011;3625;51.762;14.320;2023-11-21T03:36:50;11.00;;;6.57;;
7166;SDS011;3625;51.762;14.320;2023-11-21T03:39:19;12.43;;;7.17;;
7166;SDS011;3625;51.762;14.320;2023-11-21T03:41:49;14.40;;;6.60;;
7166;SDS011;3625;51.762;14.320;2023-11-21T03:44:18;11.73;;;6.20;;
7166;SDS011;3625;51.762;14.320;2023-11-21T03:46:48;10.93;;;6.50;;
7166;SDS011;3625;51.762;14.320;2023-11-21T03:49:18;9.70;;;7.47;;
7166;SDS011;3625;51.762;14.320;2023-11-21T03:51:47;13.97;;;6.77;;
7166;SDS011;3625;51.762;14.320;2023-11-21T03:54:16;14.07;;;6.63;;
7166;SDS011;3625;51.762;14.320;2023-11-21T03:56:45;10.70;;;6.40;;
7166;SDS011;3625;51.762;14.320;2023-11-21T03:59:14;11.13;;;6.53;;
7166;SDS011;3625;51.762;14.320;2023-11-21T04:01:43;13.07;;;6.33;;
7166;SDS011;3625;51.762;14.320;2023-11-21T04:04:12;10.20;;;6.67;;
7166;SDS011;3625;51.762;14.320;2023-11-21T04:06:42;13.07;;;6.60;;
7166;SDS011;3625;51.762;14.320;2023-11-21T04:09:11;10.47;;;6.83;;
7166;SDS011;3625;51.762;14.320;2023-11-21T04:11:40;9.77;;;6.77;;
7166;SDS011;3625;51.762;14.320;2023-11-21T04:14:09;8.87;;;6.03;;
7166;SDS011;3625;51.762;14.320;2023-11-21T04:16:38;12.63;;;7.03;;
7166;SDS011;3625;51.762;14.320;2023-11-21T04:19:08;11.37;;;6.03;;
7166;SDS011;3625;51.762;14.320;2023-11-21T04:21:37;14.30;;;7.67;;
7166;SDS011;3625;51.762;14.320;2023-11-21T04:24:08;11.17;;;6.73;;
7166;SDS011;3625;51.762;14.320;2023-11-21T04:26:37;8.53;;;5.37;;
7166;SDS011;3625;51.762;14.320;2023-11-21T04:29:05;12.77;;;6.83;;
7166;SDS011;3625;51.762;14.320;2023-11-21T04:31:34;8.73;;;5.97;;
7166;SDS011;3625;51.762;14.320;2023-11-21T04:34:03;8.23;;;5.60;;
7166;SDS011;3625;51.762;14.320;2023-11-21T04:36:32;9.03;;;5.53;;
7166;SDS011;3625;51.762;14.320;2023-11-21T04:39:01;8.57;;;5.60;;
7166;SDS011;3625;51.762;14.320;2023-11-21T04:41:31;11.50;;;6.33;;
7166;SDS011;3625;51.762;14.320;2023-11-21T04:44:00;8.23;;;5.53;;
7166;SDS011;3625;51.762;14.320;2023-11-21T04:46:29;11.00;;;6.03;;
7166;SDS011;3625;51.762;14.320;2023-11-21T04:48:58;9.23;;;5.50;;
7166;SDS011;3625;51.762;14.320;2023-11-21T04:51:27;8.90;;;6.03;;
7166;SDS011;3625;51.762;14.320;2023-11-21T04:53:56;9.03;;;5.57;;
7166;SDS011;3625;51.762;14.320;2023-11-21T04:56:27;9.37;;;5.87;;
7166;SDS011;3625;51.762;14.320;2023-11-21T04:58:57;7.30;;;5.30;;
7166;SDS011;3625;51.762;14.320;2023-11-21T05:01:26;9.57;;;5.57;;
7166;SDS011;3625;51.762;14.320;2023-11-21T05:03:57;7.33;;;5.87;;
7166;SDS011;3625;51.762;14.320;2023-11-21T05:06:33;10.80;;;5.93;;
7166;SDS011;3625;51.762;14.320;2023-11-21T05:09:02;4.87;;;4.13;;
7166;SDS011;3625;51.762;14.320;2023-11-21T05:11:38;4.13;;;3.70;;
7166;SDS011;3625;51.762;14.320;2023-11-21T05:14:08;4.40;;;3.33;;
7166;SDS011;3625;51.762;14.320;2023-11-21T05:16:38;3.10;;;2.73;;
7166;SDS011;3625;51.762;14.320;2023-11-21T05:19:09;2.90;;;2.60;;
7166;SDS011;3625;51.762;14.320;2023-11-21T05:21:39;2.63;;;2.43;;
7166;SDS011;3625;51.762;14.320;2023-11-21T05:24:08;2.80;;;2.60;;
7166;SDS011;3625;51.762;14.320;2023-11-21T05:26:37;3.07;;;2.80;;
7166;SDS011;3625;51.762;14.320;2023-11-21T05:29:06;3.07;;;2.50;;
7166;SDS011;3625;51.762;14.320;2023-11-21T05:31:37;2.77;;;2.53;;
7166;SDS011;3625;51.762;14.320;2023-11-21T05:34:06;2.70;;;2.50;;
7166;SDS011;3625;51.762;14.320;2023-11-21T05:36:35;3.10;;;2.83;;
7166;SDS011;3625;51.762;14.320;2023-11-21T05:39:04;2.53;;;2.40;;
7166;SDS011;3625;51.762;14.320;2023-11-21T05:41:33;2.60;;;2.40;;
7166;SDS011;3625;51.762;14.320;2023-11-21T05:44:04;2.83;;;2.60;;
7166;SDS011;3625;51.762;14.320;2023-11-21T05:46:34;2.30;;;2.10;;
7166;SDS011;3625;51.762;14.320;2023-11-21T05:49:03;2.50;;;2.40;;
7166;SDS011;3625;51.762;14.320;2023-11-21T05:51:32;3.30;;;3.10;;
7166;SDS011;3625;51.762;14.320;2023-11-21T05:54:01;3.47;;;3.17;;
7166;SDS011;3625;51.762;14.320;2023-11-21T05:56:30;3.93;;;3.63;;
7166;SDS011;3625;51.762;14.320;2023-11-21T05:58:59;3.80;;;3.50;;
7166;SDS011;3625;51.762;14.320;2023-11-21T06:01:29;4.33;;;3.93;;
7166;SDS011;3625;51.762;14.320;2023-11-21T06:04:00;4.60;;;4.20;;
7166;SDS011;3625;51.762;14.320;2023-11-21T06:06:30;4.70;;;4.30;;
7166;SDS011;3625;51.762;14.320;2023-11-21T06:08:59;5.30;;;4.80;;
7166;SDS011;3625;51.762;14.320;2023-11-21T06:11:28;5.73;;;5.13;;
7166;SDS011;3625;51.762;14.320;2023-11-21T06:13:57;6.17;;;5.67;;
7166;SDS011;3625;51.762;14.320;2023-11-21T06:16:26;5.37;;;4.87;;
7166;SDS011;3625;51.762;14.320;2023-11-21T06:18:55;5.80;;;5.20;;
7166;SDS011;3625;51.762;14.320;2023-11-21T06:21:26;6.67;;;5.57;;
7166;SDS011;3625;51.762;14.320;2023-11-21T06:23:55;5.50;;;5.00;;
7166;SDS011;3625;51.762;14.320;2023-11-21T06:26:24;5.93;;;5.43;;
7166;SDS011;3625;51.762;14.320;2023-11-21T06:28:54;5.63;;;5.03;;
7166;SDS011;3625;51.762;14.320;2023-11-21T06:31:28;6.60;;;6.00;;
7166;SDS011;3625;51.762;14.320;2023-11-21T06:34:00;7.97;;;6.90;;
7166;SDS011;3625;51.762;14.320;2023-11-21T06:36:31;7.90;;;7.00;;
7166;SDS011;3625;51.762;14.320;2023-11-21T06:39:00;9.63;;;7.47;;
7166;SDS011;3625;51.762;14.320;2023-11-21T06:41:30;8.13;;;7.00;;
7166;SDS011;3625;51.762;14.320;2023-11-21T06:43:59;10.83;;;9.40;;
7166;SDS011;3625;51.762;14.320;2023-11-21T06:46:29;10.90;;;7.83;;
7166;SDS011;3625;51.762;14.320;2023-11-21T06:49:14;9.20;;;7.80;;
7166;SDS011;3625;51.762;14.320;2023-11-21T06:51:45;9.77;;;8.13;;
7166;SDS011;3625;51.762;14.320;2023-11-21T06:54:14;10.63;;;8.20;;
7166;SDS011;3625;51.762;14.320;2023-11-21T06:56:43;10.67;;;8.13;;
7166;SDS011;3625;51.762;14.320;2023-11-21T06:59:12;11.60;;;8.97;;
7166;SDS011;3625;51.762;14.320;2023-11-21T07:01:41;11.83;;;9.20;;
7166;SDS011;3625;51.762;14.320;2023-11-21T07:04:16;11.20;;;7.70;;
7166;SDS011;3625;51.762;14.320;2023-11-21T07:06:48;12.53;;;9.30;;
7166;SDS011;3625;51.762;14.320;2023-11-21T07:09:17;11.53;;;7.87;;
7166;SDS011;3625;51.762;14.320;2023-11-21T07:11:48;9.63;;;7.97;;
7166;SDS011;3625;51.762;14.320;2023-11-21T07:14:18;9.23;;;7.33;;
7166;SDS011;3625;51.762;14.320;2023-11-21T07:16:47;9.37;;;7.33;;
7166;SDS011;3625;51.762;14.320;2023-11-21T07:19:19;10.03;;;7.27;;
7166;SDS011;3625;51.762;14.320;2023-11-21T07:21:53;14.17;;;9.43;;
7166;SDS011;3625;51.762;14.320;2023-11-21T07:24:23;17.07;;;12.07;;
7166;SDS011;3625;51.762;14.320;2023-11-21T07:26:55;23.37;;;13.87;;
7166;SDS011;3625;51.762;14.320;2023-11-21T07:29:25;25.53;;;14.93;;
7166;SDS011;3625;51.762;14.320;2023-11-21T07:31:56;28.27;;;16.33;;
7166;SDS011;3625;51.762;14.320;2023-11-21T07:34:25;30.57;;;18.10;;
7166;SDS011;3625;51.762;14.320;2023-11-21T07:37:04;29.03;;;16.57;;
7166;SDS011;3625;51.762;14.320;2023-11-21T07:39:33;26.77;;;16.50;;
7166;SDS011;3625;51.762;14.320;2023-11-21T07:42:02;27.10;;;14.97;;
7166;SDS011;3625;51.762;14.320;2023-11-21T07:44:31;30.17;;;15.93;;
7166;SDS011;3625;51.762;14.320;2023-11-21T07:47:02;23.57;;;14.53;;
7166;SDS011;3625;51.762;14.320;2023-11-21T07:49:33;31.57;;;16.97;;
7166;SDS011;3625;51.762;14.320;2023-11-21T07:52:06;24.40;;;14.03;;
7166;SDS011;3625;51.762;14.320;2023-11-21T07:54:35;20.47;;;13.77;;
7166;SDS011;3625;51.762;14.320;2023-11-21T07:57:08;21.30;;;13.60;;
7166;SDS011;3625;51.762;14.320;2023-11-21T07:59:40;20.40;;;13.63;;
7166;SDS011;3625;51.762;14.320;2023-11-21T08:02:11;20.70;;;14.07;;
7166;SDS011;3625;51.762;14.320;2023-11-21T08:04:41;20.63;;;12.30;;
7166;SDS011;3625;51.762;14.320;2023-11-21T08:07:13;17.43;;;12.00;;
7166;SDS011;3625;51.762;14.320;2023-11-21T08:09:43;17.47;;;12.63;;
7166;SDS011;3625;51.762;14.320;2023-11-21T08:12:17;17.27;;;11.63;;
7166;SDS011;3625;51.762;14.320;2023-11-21T08:14:47;18.67;;;13.13;;
7166;SDS011;3625;51.762;14.320;2023-11-21T08:17:16;18.70;;;12.90;;
7166;SDS011;3625;51.762;14.320;2023-11-21T08:19:49;18.63;;;13.60;;
7166;SDS011;3625;51.762;14.320;2023-11-21T08:22:19;15.60;;;12.70;;
7166;SDS011;3625;51.762;14.320;2023-11-21T08:24:49;16.80;;;13.33;;
7166;SDS011;3625;51.762;14.320;2023-11-21T08:27:18;17.10;;;13.57;;
7166;SDS011;3625;51.762;14.320;2023-11-21T08:29:47;19.90;;;13.77;;
7166;SDS011;3625;51.762;14.320;2023-11-21T08:32:17;17.53;;;12.10;;
7166;SDS011;3625;51.762;14.320;2023-11-21T08:34:48;17.40;;;12.80;;
7166;SDS011;3625;51.762;14.320;2023-11-21T08:37:22;17.33;;;12.57;;
7166;SDS011;3625;51.762;14.320;2023-11-21T08:39:53;22.93;;;13.07;;
7166;SDS011;3625;51.762;14.320;2023-11-21T08:42:22;16.70;;;12.80;;
7166;SDS011;3625;51.762;14.320;2023-11-21T08:44:51;16.30;;;12.43;;
7166;SDS011;3625;51.762;14.320;2023-11-21T08:47:20;14.93;;;11.63;;
7166;SDS011;3625;51.762;14.320;2023-11-21T08:49:50;15.13;;;10.77;;
7166;SDS011;3625;51.762;14.320;2023-11-21T08:52:23;15.50;;;11.00;;
7166;SDS011;3625;51.762;14.320;2023-11-21T08:54:52;16.77;;;11.77;;
7166;SDS011;3625;51.762;14.320;2023-11-21T08:57:25;15.77;;;12.20;;
7166;SDS011;3625;51.762;14.320;2023-11-21T08:59:58;17.53;;;12.10;;
7166;SDS011;3625;51.762;14.320;2023-11-21T09:02:35;16.00;;;11.50;;
7166;SDS011;3625;51.762;14.320;2023-11-21T09:05:16;14.33;;;11.70;;
7166;SDS011;3625;51.762;14.320;2023-11-21T09:07:47;19.40;;;12.00;;
7166;SDS011;3625;51.762;14.320;2023-11-21T09:10:16;17.63;;;13.00;;
7166;SDS011;3625;51.762;14.320;2023-11-21T09:12:45;16.80;;;11.57;;
7166;SDS011;3625;51.762;14.320;2023-11-21T09:15:15;14.80;;;10.97;;
7166;SDS011;3625;51.762;14.320;2023-11-21T09:17:46;14.23;;;11.90;;
7166;SDS011;3625;51.762;14.320;2023-11-21T09:20:15;14.33;;;11.67;;
7166;SDS011;3625;51.762;14.320;2023-11-21T09:22:44;13.73;;;10.30;;
7166;SDS011;3625;51.762;14.320;2023-11-21T09:25:17;13.50;;;10.33;;
7166;SDS011;3625;51.762;14.320;2023-11-21T09:27:50;12.50;;;9.77;;
7166;SDS011;3625;51.762;14.320;2023-11-21T09:30:23;13.40;;;9.43;;
7166;SDS011;3625;51.762;14.320;2023-11-21T09:32:57;15.63;;;10.30;;
7166;SDS011;3625;51.762;14.320;2023-11-21T09:35:28;14.07;;;10.50;;
7166;SDS011;3625;51.762;14.320;2023-11-21T09:38:05;11.50;;;9.30;;
7166;SDS011;3625;51.762;14.320;2023-11-21T09:40:37;11.83;;;9.00;;
7166;SDS011;3625;51.762;14.320;2023-11-21T09:43:14;10.63;;;8.33;;
7166;SDS011;3625;51.762;14.320;2023-11-21T09:45:45;13.67;;;10.70;;
7166;SDS011;3625;51.762;14.320;2023-11-21T09:48:19;13.53;;;10.00;;
7166;SDS011;3625;51.762;14.320;2023-11-21T09:50:51;11.87;;;9.57;;
7166;SDS011;3625;51.762;14.320;2023-11-21T09:53:33;12.50;;;9.27;;
7166;SDS011;3625;51.762;14.320;2023-11-21T09:56:06;11.07;;;9.87;;
7166;SDS011;3625;51.762;14.320;2023-11-21T09:58:42;11.40;;;8.97;;
7166;SDS011;3625;51.762;14.320;2023-11-21T10:01:13;10.30;;;8.63;;
7166;SDS011;3625;51.762;14.320;2023-11-21T10:03:47;11.03;;;9.03;;
7166;SDS011;3625;51.762;14.320;2023-11-21T10:06:20;9.33;;;8.33;;
7166;SDS011;3625;51.762;14.320;2023-11-21T10:08:56;10.17;;;8.07;;
7166;SDS011;3625;51.762;14.320;2023-11-21T10:11:27;10.43;;;8.97;;
7166;SDS011;3625;51.762;14.320;2023-11-21T10:14:00;9.67;;;8.67;;
7166;SDS011;3625;51.762;14.320;2023-11-21T10:16:31;9.37;;;8.37;;
7166;SDS011;3625;51.762;14.320;2023-11-21T10:19:04;11.23;;;9.27;;
7166;SDS011;3625;51.762;14.320;2023-11-21T10:21:42;8.90;;;8.00;;
7166;SDS011;3625;51.762;14.320;2023-11-21T10:24:15;8.50;;;7.20;;
7166;SDS011;3625;51.762;14.320;2023-11-21T10:26:46;9.97;;;8.13;;
7166;SDS011;3625;51.762;14.320;2023-11-21T10:29:19;9.93;;;8.00;;
7166;SDS011;3625;51.762;14.320;2023-11-21T10:31:59;8.83;;;7.57;;
7166;SDS011;3625;51.762;14.320;2023-11-21T10:34:29;11.03;;;8.40;;
7166;SDS011;3625;51.762;14.320;2023-11-21T10:36:59;9.77;;;7.37;;
7166;SDS011;3625;51.762;14.320;2023-11-21T10:39:40;9.47;;;7.77;;
7166;SDS011;3625;51.762;14.320;2023-11-21T10:42:12;9.07;;;8.07;;
7166;SDS011;3625;51.762;14.320;2023-11-21T10:44:41;8.67;;;6.90;;
7166;SDS011;3625;51.762;14.320;2023-11-21T10:47:12;8.37;;;6.43;;
7166;SDS011;3625;51.762;14.320;2023-11-21T10:49:42;9.43;;;7.50;;
7166;SDS011;3625;51.762;14.320;2023-11-21T10:52:14;8.33;;;7.30;;
7166;SDS011;3625;51.762;14.320;2023-11-21T10:54:47;7.23;;;6.53;;
7166;SDS011;3625;51.762;14.320;2023-11-21T10:57:17;8.60;;;6.30;;
7166;SDS011;3625;51.762;14.320;2023-11-21T10:59:53;6.27;;;5.07;;
7166;SDS011;3625;51.762;14.320;2023-11-21T11:02:26;6.77;;;6.07;;
7166;SDS011;3625;51.762;14.320;2023-11-21T11:04:59;6.90;;;6.20;;
7166;SDS011;3625;51.762;14.320;2023-11-21T11:07:28;7.80;;;5.87;;
7166;SDS011;3625;51.762;14.320;2023-11-21T11:10:02;6.63;;;5.83;;
7166;SDS011;3625;51.762;14.320;2023-11-21T11:12:34;6.13;;;5.17;;
7166;SDS011;3625;51.762;14.320;2023-11-21T11:15:04;6.30;;;5.70;;
7166;SDS011;3625;51.762;14.320;2023-11-21T11:17:36;4.87;;;4.37;;
7166;SDS011;3625;51.762;14.320;2023-11-21T11:20:07;5.77;;;4.90;;
7166;SDS011;3625;51.762;14.320;2023-11-21T11:22:41;5.10;;;4.60;;
7166;SDS011;3625;51.762;14.320;2023-11-21T11:25:30;4.07;;;3.77;;
7166;SDS011;3625;51.762;14.320;2023-11-21T11:28:21;4.37;;;3.97;;
7166;SDS011;3625;51.762;14.320;2023-11-21T11:31:00;3.97;;;3.67;;
7166;SDS011;3625;51.762;14.320;2023-11-21T11:33:44;3.10;;;2.90;;
7166;SDS011;3625;51.762;14.320;2023-11-21T11:36:21;3.47;;;3.20;;
7166;SDS011;3625;51.762;14.320;2023-11-21T11:38:54;4.03;;;3.30;;
7166;SDS011;3625;51.762;14.320;2023-11-21T11:41:25;3.53;;;3.23;;
7166;SDS011;3625;51.762;14.320;2023-11-21T11:43:56;3.80;;;3.40;;
7166;SDS011;3625;51.762;14.320;2023-11-21T11:46:40;3.37;;;3.07;;
7166;SDS011;3625;51.762;14.320;2023-11-21T11:49:23;3.47;;;3.17;;
7166;SDS011;3625;51.762;14.320;2023-11-21T11:55:03;3.30;;;3.00;;
7166;SDS011;3625;51.762;14.320;2023-11-21T11:57:41;3.07;;;2.87;;
7166;SDS011;3625;51.762;14.320;2023-11-21T12:00:14;3.10;;;2.90;;
7166;SDS011;3625;51.762;14.320;2023-11-21T12:02:52;3.10;;;2.90;;
7166;SDS011;3625;51.762;14.320;2023-11-21T12:05:25;3.00;;;2.80;;
7166;SDS011;3625;51.762;14.320;2023-11-21T12:07:55;2.77;;;2.57;;
7166;SDS011;3625;51.762;14.320;2023-11-21T12:10:30;2.93;;;2.73;;
7166;SDS011;3625;51.762;14.320;2023-11-21T12:13:02;2.80;;;2.60;;
7166;SDS011;3625;51.762;14.320;2023-11-21T12:15:34;2.90;;;2.70;;
7166;SDS011;3625;51.762;14.320;2023-11-21T12:18:06;3.17;;;2.87;;
7166;SDS011;3625;51.762;14.320;2023-11-21T12:20:36;3.00;;;2.80;;
7166;SDS011;3625;51.762;14.320;2023-11-21T12:23:07;2.97;;;2.77;;
7166;SDS011;3625;51.762;14.320;2023-11-21T12:25:38;3.13;;;2.83;;
7166;SDS011;3625;51.762;14.320;2023-11-21T12:28:09;3.43;;;2.67;;
7166;SDS011;3625;51.762;14.320;2023-11-21T12:30:39;2.87;;;2.67;;
7166;SDS011;3625;51.762;14.320;2023-11-21T12:33:07;3.40;;;3.20;;
7166;SDS011;3625;51.762;14.320;2023-11-21T12:35:37;3.33;;;3.03;;
7166;SDS011;3625;51.762;14.320;2023-11-21T12:38:08;3.10;;;2.73;;
7166;SDS011;3625;51.762;14.320;2023-11-21T12:40:40;3.40;;;3.10;;
7166;SDS011;3625;51.762;14.320;2023-11-21T12:43:12;3.40;;;3.10;;
7166;SDS011;3625;51.762;14.320;2023-11-21T12:45:41;3.97;;;3.60;;
7166;SDS011;3625;51.762;14.320;2023-11-21T12:48:13;3.90;;;3.53;;
7166;SDS011;3625;51.762;14.320;2023-11-21T12:50:51;4.00;;;3.57;;
7166;SDS011;3625;51.762;14.320;2023-11-21T12:53:22;4.83;;;4.10;;
7166;SDS011;3625;51.762;14.320;2023-11-21T12:55:51;4.63;;;4.20;;
7166;SDS011;3625;51.762;14.320;2023-11-21T12:58:26;4.50;;;4.10;;
7166;SDS011;3625;51.762;14.320;2023-11-21T13:00:55;4.37;;;4.07;;
7166;SDS011;3625;51.762;14.320;2023-11-21T13:03:38;4.97;;;4.57;;
7166;SDS011;3625;51.762;14.320;2023-11-21T13:06:10;5.73;;;5.13;;
7166;SDS011;3625;51.762;14.320;2023-11-21T13:08:40;5.57;;;4.50;;
7166;SDS011;3625;51.762;14.320;2023-11-21T13:11:13;5.53;;;5.03;;
7166;SDS011;3625;51.762;14.320;2023-11-21T13:13:43;4.83;;;4.40;;
7166;SDS011;3625;51.762;14.320;2023-11-21T13:16:16;4.57;;;4.20;;
7166;SDS011;3625;51.762;14.320;2023-11-21T13:18:48;5.30;;;4.83;;
7166;SDS011;3625;51.762;14.320;2023-11-21T13:21:19;5.10;;;4.60;;
7166;SDS011;3625;51.762;14.320;2023-11-21T13:23:48;4.97;;;4.47;;
7166;SDS011;3625;51.762;14.320;2023-11-21T13:26:19;5.77;;;4.90;;
7166;SDS011;3625;51.762;14.320;2023-11-21T13:28:52;5.00;;;4.60;;
7166;SDS011;3625;51.762;14.320;2023-11-21T13:31:23;5.40;;;4.90;;
7166;SDS011;3625;51.762;14.320;2023-11-21T13:33:57;5.07;;;4.67;;
7166;SDS011;3625;51.762;14.320;2023-11-21T13:36:33;5.67;;;4.57;;
7166;SDS011;3625;51.762;14.320;2023-11-21T13:39:03;5.27;;;4.83;;
7166;SDS011;3625;51.762;14.320;2023-11-21T13:41:35;5.20;;;4.70;;
7166;SDS011;3625;51.762;14.320;2023-11-21T13:44:07;5.37;;;4.83;;
7166;SDS011;3625;51.762;14.320;2023-11-21T13:46:45;5.10;;;4.70;;
7166;SDS011;3625;51.762;14.320;2023-11-21T13:49:14;4.93;;;4.53;;
7166;SDS011;3625;51.762;14.320;2023-11-21T13:51:43;5.10;;;4.70;;
7166;SDS011;3625;51.762;14.320;2023-11-21T13:54:14;5.10;;;4.70;;
7166;SDS011;3625;51.762;14.320;2023-11-21T13:56:43;6.20;;;5.77;;
7166;SDS011;3625;51.762;14.320;2023-11-21T13:59:18;5.17;;;4.53;;
7166;SDS011;3625;51.762;14.320;2023-11-21T14:01:49;5.73;;;5.33;;
7166;SDS011;3625;51.762;14.320;2023-11-21T14:04:24;5.20;;;4.43;;
7166;SDS011;3625;51.762;14.320;2023-11-21T14:07:17;4.67;;;4.27;;
7166;SDS011;3625;51.762;14.320;2023-11-21T14:09:57;5.93;;;5.43;;
7166;SDS011;3625;51.762;14.320;2023-11-21T14:12:27;6.67;;;5.97;;
7166;SDS011;3625;51.762;14.320;2023-11-21T14:15:09;6.73;;;6.03;;
7166;SDS011;3625;51.762;14.320;2023-11-21T14:17:43;6.63;;;6.13;;
7166;SDS011;3625;51.762;14.320;2023-11-21T14:20:12;6.20;;;5.60;;
7166;SDS011;3625;51.762;14.320;2023-11-21T14:22:43;6.60;;;6.00;;
7166;SDS011;3625;51.762;14.320;2023-11-21T14:25:13;6.67;;;6.13;;
7166;SDS011;3625;51.762;14.320;2023-11-21T14:27:45;6.03;;;5.63;;
7166;SDS011;3625;51.762;14.320;2023-11-21T14:30:15;7.10;;;6.40;;
7166;SDS011;3625;51.762;14.320;2023-11-21T14:32:46;7.17;;;5.63;;
7166;SDS011;3625;51.762;14.320;2023-11-21T14:35:15;5.80;;;5.30;;
7166;SDS011;3625;51.762;14.320;2023-11-21T14:37:45;6.37;;;5.80;;
7166;SDS011;3625;51.762;14.320;2023-11-21T14:40:14;5.67;;;5.20;;
7166;SDS011;3625;51.762;14.320;2023-11-21T14:42:48;6.43;;;5.80;;
7166;SDS011;3625;51.762;14.320;2023-11-21T14:45:20;5.60;;;5.00;;
7166;SDS011;3625;51.762;14.320;2023-11-21T14:47:52;5.60;;;5.10;;
7166;SDS011;3625;51.762;14.320;2023-11-21T14:50:32;5.37;;;4.93;;
7166;SDS011;3625;51.762;14.320;2023-11-21T14:53:12;6.30;;;5.77;;
7166;SDS011;3625;51.762;14.320;2023-11-21T14:55:40;5.50;;;5.10;;
7166;SDS011;3625;51.762;14.320;2023-11-21T14:58:23;5.40;;;4.85;;
7166;SDS011;3625;51.762;14.320;2023-11-21T15:00:55;4.53;;;4.17;;
7166;SDS011;3625;51.762;14.320;2023-11-21T15:03:25;4.45;;;4.05;;
7166;SDS011;3625;51.762;14.320;2023-11-21T15:06:13;4.90;;;4.40;;
7166;SDS011;3625;51.762;14.320;2023-11-21T15:08:53;5.00;;;4.60;;
7166;SDS011;3625;51.762;14.320;2023-11-21T15:11:45;5.10;;;4.70;;
7166;SDS011;3625;51.762;14.320;2023-11-21T15:14:15;4.40;;;4.07;;
7166;SDS011;3625;51.762;14.320;2023-11-21T15:19:55;4.47;;;4.17;;
7166;SDS011;3625;51.762;14.320;2023-11-21T15:22:24;4.50;;;4.13;;
7166;SDS011;3625;51.762;14.320;2023-11-21T15:24:55;5.00;;;4.50;;
7166;SDS011;3625;51.762;14.320;2023-11-21T15:27:24;5.67;;;5.23;;